createdAt,value
2022-08-07T00:02:36.201Z,2.93
2022-08-07T00:04:44.367Z,3.05
2022-08-07T00:07:50.542Z,3.35
2022-08-07T00:10:27.171Z,3.20
2022-08-07T00:12:59.816Z,3.30
2022-08-07T00:15:25.737Z,3.17
2022-08-07T00:17:59.224Z,3.20
2022-08-07T00:20:29.847Z,3.38
2022-08-07T00:22:57.305Z,3.42
2022-08-07T00:25:23.545Z,3.10
2022-08-07T00:27:52.669Z,3.10
2022-08-07T00:30:26.366Z,3.00
2022-08-07T00:32:51.421Z,3.40
2022-08-07T00:35:14.313Z,3.40
2022-08-07T00:37:47.771Z,3.13
2022-08-07T00:40:14.081Z,3.07
2022-08-07T00:42:36.989Z,3.40
2022-08-07T00:45:02.304Z,3.35
2022-08-07T00:48:09.031Z,2.92
2022-08-07T00:50:19.652Z,3.05
2022-08-07T00:52:55.437Z,3.43
2022-08-07T00:55:25.572Z,3.00
2022-08-07T00:58:00.879Z,3.13
2022-08-07T01:00:23.912Z,3.33
2022-08-07T01:02:47.022Z,3.47
2022-08-07T01:05:19.236Z,3.60
2022-08-07T01:07:43.022Z,3.30
2022-08-07T01:10:11.196Z,3.50
2022-08-07T01:12:37.196Z,3.45
2022-08-07T01:15:03.944Z,3.47
2022-08-07T01:17:27.613Z,3.20
2022-08-07T01:19:56.106Z,3.30
2022-08-07T01:22:22.827Z,3.75
2022-08-07T01:24:52.931Z,3.47
2022-08-07T01:27:19.506Z,3.47
2022-08-07T01:29:43.788Z,3.80
2022-08-07T01:32:12.553Z,3.90
2022-08-07T01:34:38.685Z,3.47
2022-08-07T01:37:09.815Z,3.53
2022-08-07T01:39:39.595Z,3.58
2022-08-07T01:42:39.015Z,3.70
2022-08-07T01:44:52.611Z,3.78
2022-08-07T01:48:19.101Z,3.95
2022-08-07T01:49:59.342Z,3.53
2022-08-07T01:52:26.592Z,3.97
2022-08-07T01:54:54.314Z,3.70
2022-08-07T01:57:24.915Z,3.65
2022-08-07T01:59:56.061Z,4.00
2022-08-07T02:03:11.440Z,3.80
2022-08-07T02:05:15.871Z,3.60
2022-08-07T02:07:58.645Z,3.63
2022-08-07T02:10:31.505Z,3.90
2022-08-07T02:12:59.993Z,3.92
2022-08-07T02:15:31.546Z,3.80
2022-08-07T02:17:59.934Z,3.80
2022-08-07T02:20:24.599Z,3.83
2022-08-07T02:22:57.576Z,3.85
2022-08-07T02:26:10.388Z,4.15
2022-08-07T02:28:09.209Z,4.15
2022-08-07T02:30:36.706Z,4.18
2022-08-07T02:33:07.300Z,4.10
2022-08-07T02:36:29.723Z,4.00
2022-08-07T02:38:22.719Z,4.72
2022-08-07T02:40:55.966Z,3.80
2022-08-07T02:43:19.835Z,4.60
2022-08-07T02:45:58.127Z,4.00
2022-08-07T02:48:25.924Z,4.13
2022-08-07T02:50:55.275Z,4.20
2022-08-07T02:53:27.200Z,4.40
2022-08-07T02:56:03.389Z,4.35
2022-08-07T02:58:33.412Z,3.90
2022-08-07T03:00:58.916Z,4.18
2022-08-07T03:03:23.889Z,4.30
2022-08-07T03:05:53.890Z,4.78
2022-08-07T03:08:18.034Z,4.30
2022-08-07T03:10:50.308Z,4.20
2022-08-07T03:13:19.654Z,4.30
2022-08-07T03:15:47.707Z,4.05
2022-08-07T03:18:20.123Z,4.10
2022-08-07T03:20:44.871Z,4.22
2022-08-07T03:23:19.025Z,4.30
2022-08-07T03:25:44.659Z,4.28
2022-08-07T03:28:38.402Z,4.32
2022-08-07T03:31:18.649Z,4.63
2022-08-07T03:33:46.211Z,4.95
2022-08-07T03:36:16.464Z,5.10
2022-08-07T03:38:41.949Z,4.55
2022-08-07T03:41:09.016Z,4.95
2022-08-07T03:43:33.916Z,4.85
2022-08-07T03:45:59.700Z,4.80
2022-08-07T03:48:22.811Z,4.70
2022-08-07T03:50:56.054Z,4.70
2022-08-07T03:54:01.817Z,4.80
2022-08-07T03:56:16.285Z,4.68
2022-08-07T03:59:08.678Z,4.80
2022-08-07T04:01:23.995Z,4.57
2022-08-07T04:03:53.330Z,5.00
2022-08-07T04:06:38.044Z,5.07
2022-08-07T04:09:15.199Z,4.90
2022-08-07T04:12:21.468Z,4.85
2022-08-07T04:14:38.531Z,4.87
2022-08-07T04:17:20.418Z,4.68
2022-08-07T04:19:54.907Z,4.82
2022-08-07T04:22:29.479Z,4.68
2022-08-07T04:24:55.920Z,5.25
2022-08-07T04:27:25.862Z,6.97
2022-08-07T04:30:02.381Z,5.85
2022-08-07T04:32:58.073Z,6.05
2022-08-07T04:35:24.025Z,5.47
2022-08-07T04:38:03.552Z,5.93
2022-08-07T04:40:31.315Z,5.73
2022-08-07T04:42:55.149Z,5.30
2022-08-07T04:45:52.155Z,5.80
2022-08-07T04:48:23.909Z,5.85
2022-08-07T04:50:58.459Z,5.63
2022-08-07T04:54:01.898Z,5.40
2022-08-07T04:58:09.386Z,5.57
2022-08-07T05:00:11.430Z,5.78
2022-08-07T05:02:40.066Z,6.28
2022-08-07T05:05:52.124Z,6.18
2022-08-07T05:08:08.430Z,6.00
2022-08-07T05:10:39.299Z,5.70
2022-08-07T05:14:53.107Z,5.90
2022-08-07T05:16:04.771Z,6.45
2022-08-07T05:18:30.983Z,5.57
2022-08-07T05:21:02.087Z,5.67
2022-08-07T05:23:36.356Z,6.07
2022-08-07T05:26:15.432Z,6.07
2022-08-07T05:28:48.431Z,6.05
2022-08-07T05:31:17.825Z,6.13
2022-08-07T05:33:51.399Z,5.97
2022-08-07T05:36:30.609Z,6.20
2022-08-07T05:39:16.000Z,6.35
2022-08-07T05:42:01.803Z,6.28
2022-08-07T05:44:29.697Z,6.00
2022-08-07T05:46:55.443Z,6.73
2022-08-07T05:49:22.127Z,6.50
2022-08-07T05:51:47.270Z,6.45
2022-08-07T05:54:31.211Z,6.40
2022-08-07T05:57:01.183Z,6.50
2022-08-07T05:59:30.063Z,6.07
2022-08-07T06:02:20.109Z,6.43
2022-08-07T06:04:57.114Z,6.50
2022-08-07T06:07:22.909Z,5.85
2022-08-07T06:10:04.053Z,6.50
2022-08-07T06:12:33.007Z,6.10
2022-08-07T06:15:05.847Z,6.43
2022-08-07T06:17:37.766Z,6.32
2022-08-07T06:20:04.131Z,6.18
2022-08-07T06:22:34.333Z,6.10
2022-08-07T06:25:13.855Z,6.10
2022-08-07T06:27:59.579Z,5.93
2022-08-07T06:30:31.754Z,5.85
2022-08-07T06:33:10.041Z,5.93
2022-08-07T06:35:48.127Z,6.00
2022-08-07T06:38:22.851Z,5.43
2022-08-07T06:40:54.667Z,5.80
2022-08-07T06:43:22.445Z,5.72
2022-08-07T06:46:00.759Z,5.75
2022-08-07T06:48:24.951Z,5.97
2022-08-07T06:50:49.924Z,5.70
2022-08-07T06:54:11.860Z,5.70
2022-08-07T06:56:04.223Z,5.18
2022-08-07T06:58:35.585Z,4.78
2022-08-07T07:01:07.476Z,5.00
2022-08-07T07:03:48.890Z,4.87
2022-08-07T07:06:13.584Z,5.03
2022-08-07T07:08:47.097Z,4.70
2022-08-07T07:11:14.051Z,4.68
2022-08-07T07:13:58.140Z,4.70
2022-08-07T07:16:30.092Z,4.70
2022-08-07T07:19:11.302Z,4.75
2022-08-07T07:22:04.920Z,4.97
2022-08-07T07:24:29.116Z,4.50
2022-08-07T07:26:57.346Z,4.45
2022-08-07T07:29:57.124Z,4.30
2022-08-07T07:32:14.015Z,4.50
2022-08-07T07:34:41.012Z,4.80
2022-08-07T07:37:21.781Z,4.57
2022-08-07T07:39:54.532Z,5.05
2022-08-07T07:42:19.798Z,5.00
2022-08-07T07:44:49.661Z,4.70
2022-08-07T07:47:22.835Z,5.05
2022-08-07T07:50:34.008Z,4.55
2022-08-07T07:52:33.314Z,4.88
2022-08-07T07:54:56.571Z,4.90
2022-08-07T07:57:43.963Z,5.10
2022-08-07T08:00:07.559Z,5.18
2022-08-07T08:02:36.098Z,4.40
2022-08-07T08:05:00.759Z,4.78
2022-08-07T08:07:35.837Z,4.43
2022-08-07T08:10:07.524Z,4.30
2022-08-07T08:12:52.096Z,4.43
2022-08-07T08:15:15.704Z,4.40
2022-08-07T08:17:58.169Z,4.22
2022-08-07T08:20:23.068Z,4.10
2022-08-07T08:23:10.128Z,4.00
2022-08-07T08:25:54.691Z,3.80
2022-08-07T08:28:38.091Z,3.67
2022-08-07T08:31:04.077Z,3.58
2022-08-07T08:33:33.107Z,3.60
2022-08-07T08:36:18.547Z,3.13
2022-08-07T08:38:50.455Z,3.40
2022-08-07T08:41:57.362Z,3.40
2022-08-07T08:44:44.299Z,3.40
2022-08-07T08:47:26.326Z,3.20
2022-08-07T08:50:04.567Z,2.80
2022-08-07T08:52:36.030Z,3.33
2022-08-07T08:55:10.093Z,3.00
2022-08-07T08:58:13.035Z,3.20
2022-08-07T09:00:48.667Z,2.80
2022-08-07T09:03:49.529Z,3.10
2022-08-07T09:06:29.495Z,3.53
2022-08-07T09:09:20.757Z,3.08
2022-08-07T09:12:31.181Z,3.47
2022-08-07T09:16:25.228Z,3.50
2022-08-07T09:18:22.484Z,3.47
2022-08-07T09:21:05.005Z,3.17
2022-08-07T09:24:33.076Z,3.22
2022-08-07T09:26:40.777Z,3.50
2022-08-07T09:30:05.534Z,3.00
2022-08-07T09:32:57.417Z,2.88
2022-08-07T09:36:04.588Z,3.17
2022-08-07T09:38:57.930Z,3.05
2022-08-07T09:41:21.218Z,2.85
2022-08-07T09:44:05.605Z,2.80
2022-08-07T09:47:51.425Z,2.75
2022-08-07T09:50:01.602Z,3.17
2022-08-07T09:52:52.509Z,3.10
2022-08-07T09:55:36.897Z,3.20
2022-08-07T09:58:35.996Z,3.00
2022-08-07T10:01:51.524Z,2.97
2022-08-07T10:04:52.866Z,2.90
2022-08-07T10:07:31.672Z,2.97
2022-08-07T10:10:11.945Z,3.08
2022-08-07T10:13:15.928Z,2.90
2022-08-07T10:16:10.543Z,2.88
2022-08-07T10:18:42.386Z,3.03
2022-08-07T10:22:02.777Z,2.80
2022-08-07T10:24:55.809Z,2.95
2022-08-07T10:27:46.646Z,3.20
2022-08-07T10:30:13.257Z,3.10
2022-08-07T10:32:52.440Z,3.30
2022-08-07T10:35:56.259Z,3.53
2022-08-07T10:38:48.490Z,4.05
2022-08-07T10:41:51.470Z,3.97
2022-08-07T10:44:28.660Z,4.00
2022-08-07T10:47:51.346Z,4.00
2022-08-07T10:50:36.773Z,4.07
2022-08-07T10:53:21.375Z,3.67
2022-08-07T10:55:53.449Z,4.20
2022-08-07T10:58:47.649Z,4.10
2022-08-07T11:01:35.675Z,4.25
2022-08-07T11:04:37.605Z,4.20
2022-08-07T11:07:24.520Z,4.22
2022-08-07T11:10:09.469Z,4.10
2022-08-07T11:13:01.598Z,4.78
2022-08-07T11:15:31.748Z,4.30
2022-08-07T11:18:15.863Z,4.45
2022-08-07T11:20:58.906Z,4.50
2022-08-07T11:23:36.579Z,4.03
2022-08-07T11:26:21.992Z,4.10
2022-08-07T11:29:01.763Z,4.15
2022-08-07T11:31:46.688Z,3.72
2022-08-07T11:34:19.274Z,3.92
2022-08-07T11:36:58.258Z,4.30
2022-08-07T11:39:39.814Z,4.32
2022-08-07T11:42:30.359Z,3.78
2022-08-07T11:45:09.299Z,4.38
2022-08-07T11:48:18.266Z,4.50
2022-08-07T11:51:35.052Z,4.00
2022-08-07T11:54:38.677Z,4.15
2022-08-07T11:57:59.478Z,4.45
2022-08-07T12:00:19.715Z,4.10
2022-08-07T12:03:41.587Z,4.40
2022-08-07T12:06:51.817Z,4.70
2022-08-07T12:09:49.775Z,4.50
2022-08-07T12:12:14.655Z,4.60
2022-08-07T12:14:53.882Z,4.75
2022-08-07T12:17:22.046Z,4.70
2022-08-07T12:20:14.046Z,4.37
2022-08-07T12:23:09.647Z,4.40
2022-08-07T12:26:23.471Z,5.13
2022-08-07T12:29:11.298Z,4.57
2022-08-07T12:31:37.660Z,4.57
2022-08-07T12:34:17.952Z,4.43
2022-08-07T12:36:43.281Z,5.07
2022-08-07T12:39:43.305Z,4.88
2022-08-07T12:41:59.031Z,4.65
2022-08-07T12:44:26.489Z,5.07
2022-08-07T12:47:14.136Z,4.87
2022-08-07T12:49:56.679Z,4.95
2022-08-07T12:52:34.079Z,4.70
2022-08-07T12:55:05.557Z,4.78
2022-08-07T12:57:39.053Z,4.65
2022-08-07T13:00:31.291Z,4.70
2022-08-07T13:03:27.094Z,4.72
2022-08-07T13:06:54.302Z,4.53
2022-08-07T13:10:19.441Z,4.85
2022-08-07T13:12:31.739Z,4.70
2022-08-07T13:15:14.195Z,4.50
2022-08-07T13:17:59.348Z,4.80
2022-08-07T13:20:39.749Z,4.93
2022-08-07T13:24:01.057Z,4.85
2022-08-07T13:26:07.445Z,4.80
2022-08-07T13:28:45.795Z,4.63
2022-08-07T13:31:17.499Z,4.68
2022-08-07T13:34:32.179Z,4.70
2022-08-07T13:36:59.417Z,4.80
2022-08-07T13:40:35.033Z,4.78
2022-08-07T13:42:42.771Z,4.77
2022-08-07T13:46:06.835Z,4.90
2022-08-07T13:48:04.292Z,4.72
2022-08-07T13:50:32.542Z,4.90
2022-08-07T13:52:59.993Z,5.05
2022-08-07T13:55:26.391Z,4.90
2022-08-07T13:58:31.732Z,4.70
2022-08-07T14:00:55.931Z,4.93
2022-08-07T14:03:30.062Z,4.85
2022-08-07T14:06:03.946Z,4.97
2022-08-07T14:08:29.568Z,5.00
2022-08-07T14:11:02.001Z,5.20
2022-08-07T14:13:38.348Z,4.72
2022-08-07T14:16:16.202Z,4.80
2022-08-07T14:18:50.010Z,4.93
2022-08-07T14:22:03.489Z,4.90
2022-08-07T14:24:34.055Z,4.85
2022-08-07T14:27:02.589Z,4.78
2022-08-07T14:30:07.714Z,5.20
2022-08-07T14:32:42.983Z,5.25
2022-08-07T14:35:06.535Z,5.03
2022-08-07T14:37:38.681Z,5.20
2022-08-07T14:40:17.848Z,4.85
2022-08-07T14:43:55.712Z,5.05
2022-08-07T14:45:49.921Z,5.20
2022-08-07T14:51:01.952Z,4.97
2022-08-07T14:54:06.557Z,5.03
2022-08-07T14:56:29.809Z,4.55
2022-08-07T14:58:56.538Z,4.97
2022-08-07T15:01:23.846Z,5.00
2022-08-07T15:06:38.129Z,4.75
2022-08-07T15:09:57.418Z,5.15
2022-08-07T15:12:04.921Z,4.80
2022-08-07T15:14:32.567Z,4.80
2022-08-07T15:17:01.213Z,4.68
2022-08-07T15:20:31.052Z,5.13
2022-08-07T15:22:23.067Z,4.97
2022-08-07T15:30:26.184Z,5.07
2022-08-07T15:36:01.927Z,4.68
2022-08-07T15:38:33.169Z,5.05
2022-08-07T15:41:24.051Z,4.60
2022-08-07T15:44:04.833Z,4.53
2022-08-07T15:46:37.623Z,4.80
2022-08-07T15:49:12.554Z,4.78
2022-08-07T15:54:21.429Z,4.70
2022-08-07T15:56:48.242Z,5.10
2022-08-07T15:59:16.331Z,5.10
2022-08-07T16:02:02.318Z,5.05
2022-08-07T16:04:32.324Z,5.68
2022-08-07T16:06:57.312Z,5.57
2022-08-07T16:09:41.091Z,5.47
2022-08-07T16:12:28.787Z,5.93
2022-08-07T16:15:07.246Z,6.00
2022-08-07T16:18:12.301Z,6.28
2022-08-07T16:21:56.757Z,5.93
2022-08-07T16:24:01.739Z,6.25
2022-08-07T16:26:30.607Z,6.90
2022-08-07T16:30:10.103Z,6.30
2022-08-07T16:32:34.638Z,6.38
2022-08-07T16:35:50.331Z,6.57
2022-08-07T16:38:38.998Z,6.60
2022-08-07T16:41:41.424Z,6.70
2022-08-07T16:44:53.650Z,6.80
2022-08-07T16:47:56.736Z,6.70
2022-08-07T16:50:37.189Z,6.83
2022-08-07T16:54:02.168Z,6.82
2022-08-07T16:56:32.216Z,6.38
2022-08-07T16:59:14.366Z,6.63
2022-08-07T17:01:56.657Z,6.00
2022-08-07T17:04:36.821Z,6.07
2022-08-07T17:07:16.846Z,6.22
2022-08-07T17:10:06.253Z,5.97
2022-08-07T17:12:56.302Z,6.68
2022-08-07T17:15:44.520Z,5.80
2022-08-07T17:18:23.833Z,5.93
2022-08-07T17:20:49.701Z,5.85
2022-08-07T17:23:32.429Z,5.35
2022-08-07T17:26:23.583Z,6.00
2022-08-07T17:29:06.320Z,5.53
2022-08-07T17:31:44.172Z,5.50
2022-08-07T17:34:34.331Z,5.60
2022-08-07T17:37:14.417Z,5.50
2022-08-07T17:40:08.223Z,5.30
2022-08-07T17:42:59.194Z,5.43
2022-08-07T17:45:31.587Z,5.70
2022-08-07T17:48:11.143Z,5.60
2022-08-07T17:50:47.125Z,5.35
2022-08-07T17:53:58.261Z,5.82
2022-08-07T17:56:28.620Z,6.10
2022-08-07T17:58:56.815Z,6.00
2022-08-07T18:01:36.282Z,6.15
2022-08-07T18:04:16.236Z,5.90
2022-08-07T18:06:47.435Z,5.50
2022-08-07T18:09:48.435Z,5.47
2022-08-07T18:12:40.601Z,5.03
2022-08-07T18:15:11.450Z,5.05
2022-08-07T18:18:46.422Z,5.50
2022-08-07T18:21:10.229Z,5.15
2022-08-07T18:23:42.163Z,5.28
2022-08-07T18:26:01.545Z,4.77
2022-08-07T18:28:59.512Z,5.13
2022-08-07T18:31:52.472Z,5.40
2022-08-07T18:34:40.777Z,5.30
2022-08-07T18:37:09.438Z,5.80
2022-08-07T18:40:17.942Z,5.10
2022-08-07T18:42:47.763Z,4.00
2022-08-07T18:45:40.143Z,3.95
2022-08-07T18:50:04.656Z,3.70
2022-08-07T18:52:33.596Z,3.47
2022-08-07T18:54:30.843Z,3.53
2022-08-07T18:57:30.929Z,3.53
2022-08-07T19:00:04.348Z,3.70
2022-08-07T19:02:51.458Z,3.47
2022-08-07T19:06:03.150Z,3.63
2022-08-07T19:08:22.337Z,3.30
2022-08-07T19:11:35.561Z,3.53
2022-08-07T19:14:17.278Z,3.45
2022-08-07T19:17:07.747Z,3.22
2022-08-07T19:19:55.954Z,3.72
2022-08-07T19:22:30.339Z,3.40
2022-08-07T19:24:54.586Z,3.33
2022-08-07T19:28:57.867Z,3.15
2022-08-07T19:31:03.257Z,3.30
2022-08-07T19:32:59.871Z,3.20
2022-08-07T19:35:26.740Z,3.27
2022-08-07T19:37:58.013Z,3.47
2022-08-07T19:40:31.325Z,2.90
2022-08-07T19:42:56.893Z,3.33
2022-08-07T19:46:05.942Z,2.65
2022-08-07T19:48:18.851Z,2.77
2022-08-07T19:50:52.470Z,2.70
2022-08-07T19:54:32.522Z,2.70
2022-08-07T19:56:00.838Z,2.92
2022-08-07T19:58:27.925Z,2.60
2022-08-07T20:00:54.074Z,2.40
2022-08-07T20:03:34.767Z,2.40
2022-08-07T20:06:02.476Z,2.70
2022-08-07T20:08:34.045Z,2.22
2022-08-07T20:11:03.898Z,2.50
2022-08-07T20:13:54.093Z,2.30
2022-08-07T20:16:35.754Z,2.50
2022-08-07T20:19:00.324Z,2.40
2022-08-07T20:21:25.091Z,2.22
2022-08-07T20:24:03.628Z,2.70
2022-08-07T20:26:44.966Z,2.60
2022-08-07T20:29:46.833Z,2.40
2022-08-07T20:31:55.317Z,2.42
2022-08-07T20:34:48.750Z,2.20
2022-08-07T20:37:08.074Z,2.10
2022-08-07T20:40:02.616Z,2.00
2022-08-07T20:42:20.574Z,2.25
2022-08-07T20:44:49.365Z,2.08
2022-08-07T20:47:14.330Z,2.10
2022-08-07T20:50:00.114Z,2.30
2022-08-07T20:52:50.774Z,2.03
2022-08-07T20:55:07.873Z,2.17
2022-08-07T20:58:02.501Z,2.00
2022-08-07T21:00:42.727Z,2.05
2022-08-07T21:03:07.542Z,2.38
2022-08-07T21:05:51.281Z,2.10
2022-08-07T21:08:36.458Z,2.10
2022-08-07T21:11:01.692Z,2.40
2022-08-07T21:13:57.100Z,2.22
2022-08-07T21:16:13.740Z,2.30
2022-08-07T21:18:40.545Z,2.30
2022-08-07T21:21:05.168Z,2.25
2022-08-07T21:24:11.825Z,2.30
2022-08-07T21:26:42.936Z,2.20
2022-08-07T21:29:22.352Z,2.08
2022-08-07T21:32:47.840Z,2.07
2022-08-07T21:34:58.179Z,2.17
2022-08-07T21:37:58.210Z,2.28
2022-08-07T21:40:45.803Z,2.28
2022-08-07T21:43:13.941Z,1.90
2022-08-07T21:46:07.767Z,2.10
2022-08-07T21:49:14.864Z,2.20
2022-08-07T21:51:55.708Z,1.90
2022-08-07T21:54:46.227Z,2.05
2022-08-07T21:57:39.364Z,2.10
2022-08-07T22:00:20.504Z,1.87
2022-08-07T22:03:05.752Z,1.80
2022-08-07T22:05:45.389Z,1.90
2022-08-07T22:08:10.856Z,1.75
2022-08-07T22:10:35.493Z,1.90
2022-08-07T22:13:05.782Z,2.00
2022-08-07T22:16:43.509Z,1.88
2022-08-07T22:18:37.383Z,1.55
2022-08-07T22:21:22.028Z,2.10
2022-08-07T22:23:53.203Z,1.75
2022-08-07T22:26:28.374Z,1.80
2022-08-07T22:29:03.938Z,1.70
2022-08-07T22:31:59.745Z,1.83
2022-08-07T22:34:53.380Z,1.88
2022-08-07T22:38:02.748Z,1.67
2022-08-07T22:40:45.140Z,1.90
2022-08-07T22:43:14.450Z,1.67
2022-08-07T22:47:02.060Z,1.88
2022-08-07T22:49:27.366Z,1.90
2022-08-07T22:52:10.118Z,1.90
2022-08-07T22:55:17.250Z,1.93
2022-08-07T22:58:04.702Z,1.83
2022-08-07T23:01:06.218Z,1.88
2022-08-07T23:03:57.929Z,1.83
2022-08-07T23:06:40.829Z,1.80
2022-08-07T23:10:04.865Z,1.80
2022-08-07T23:12:37.407Z,1.70
2022-08-07T23:15:00.443Z,1.65
2022-08-07T23:17:37.813Z,1.55
2022-08-07T23:20:50.988Z,1.70
2022-08-07T23:24:05.741Z,1.87
2022-08-07T23:26:38.072Z,1.77
2022-08-07T23:29:43.281Z,1.80
2022-08-07T23:34:20.340Z,1.73
2022-08-07T23:35:44.895Z,1.60
2022-08-07T23:38:36.537Z,1.60
2022-08-07T23:42:01.771Z,1.90
2022-08-07T23:44:29.980Z,1.88
2022-08-07T23:47:16.197Z,1.88
2022-08-07T23:50:00.903Z,2.03
2022-08-07T23:53:05.780Z,2.00
2022-08-07T23:55:53.669Z,1.85
2022-08-07T23:58:38.353Z,2.00
